Relevés horaires Koksijde (Belgique)


Relevés horaires à Koksijde - Mercredi 22 Avr. 2026
Heure UTC1 Température [°C] Vent [km/h] Hum. [%] Pres.4 [hPa] Visi. [Km] Nébu. [octa] Préc.5 [mm] Cond.
2m. Res. Ros. Dir.2 Vit. Moy. Raf.3
23:00 9.0 8 5.2 ENE 7.4 -- 9.3 77 1027.5(1.1/3h) 16 -- -- --
22:00 9.8 8.9 6.6 NE 7.4 -- 11.1 80 1027.2(1.4/3h) 14 -- -- --
21:00 10.4 9.6 7.4 NE 7.4 -- 16.7 82 1026.7(1.3/3h) 40 -- -- --
20:00 10.6 9.8 7.5 NE 7.4 -- 13.0 81 1026.4(1.1/3h) 45 -- -- --
19:00 11.3 10.3 7.0 NNE 9.3 -- 16.7 75 1025.7(0.5/3h) 14 -- -- --
18:00 12.5 11.5 6.7 NE 11.1 -- 24.1 68 1025.4(0.0/3h) 15 -- -- --
17:00 13.6 12.6 6.2 NNE 13.0 -- 22.2 61 1025.2(-0.2/3h) 17 -- -- --
16:00 14.3 13.2 5.5 NNE 14.8 -- 24.1 55 1025.2(-0.2/3h) 17 -- -- --
15:00 14.4 13.2 5.6 NNE 16.7 -- 24.1 55 1025.2(-0.1/3h) 17 -- -- --
14:00 14.1 12.8 5.5 NNE 16.7 -- 24.1 56 1025.4(-0.5/3h) 20 0/8 -- --
13:00 15.0 14.1 5.4 NNE 14.8 -- 22.2 53 1025.4(-0.9/3h) 20 0/8 -- --
12:00 15.9 15.6 5.7 E 11.1 -- 20.4 51 1025.4(-1.1/3h) 20 0/8 -- --
11:00 15.1 14.6 1.3 E 11.1 -- 20.4 39 1026(-0.1/3h) 20 0/8 -- --
10:00 14.5 13.7 1.3 E 13.0 -- 18.5 41 1026.4(0.7/3h) 20 0/8 -- --
09:00 12.7 12 2.3 E 9.3 -- 13.0 49 1026.5(0.8/3h) 20 0/8 -- --
08:00 10.7 9.6 3.0 E 9.3 -- 13.0 59 1026(1.0/3h) 20 0/8 -- --
07:00 8.3 7.1 2.7 E 7.4 -- 11.1 68 1025.7(1.2/3h) 15 -- -- --
06:00 6.1 5.1 2.2 ENE 5.6 -- 13.0 76 1025.7(1.5/3h) 20 0/8 -- --
05:00 4.7 3.5 1.5 ENE 5.6 -- 11.1 80 1025(0.6/3h) 15 -- -- --
04:00 5.8 4.2 1.6 ENE 7.4 -- 13.0 74 1024.5(0.0/3h) >70 -- -- --
03:00 6.0 4 1.5 ENE 9.3 -- 13.0 73 1024.2(-0.6/3h) 16 -- -- --
02:00 6.5 5 1.9 NE 7.4 -- 11.1 72 1024.4(-0.3/3h) >70 -- -- --
01:00 6.9 6 2.5 ENE 5.6 -- 9.3 73 1024.4(0.0/3h) >70 -- -- --
00:00 6.7 5.8 2.1 ENE 5.6 -- 18.5 72 1024.7(0.5/3h) >70 -- -- --

1 Coordinated Universal Time. Actuellement il est 20:00 locale et 18:00 UTC.

2 Le vent souffle depuis la direction indiquée vers la direction oposée.

3 Les rafales max. sont disponible 40 min après l'heure du relevé.

4 Pour les stations d'altitude (plus de 600m) le géopotentiel du niveau le plus proche de la pression obligatoire est indiqué.

5 Les stations disposant d'un diffuseur peuvent indiquer "trace". Cela signifie que des précipitations ont touchés le sol mais que la quantité est inférieure à 0.1 mm.

Récapitulatif de la journée
Température [°C] Vent [km/h] Ensoleillement4 [h] Precipitations totale5 [mm] Pression [Hpa]
Min1 Max.2 Moy.3 Max. Min Max.
4.6 16.3 0 24.1 0 h 0 min 0 1024.2 1027.5

1 Température minimale relevée entre 18:00 UTC la veille et 18:00 UTC le jour donné.

2 Température maximale relevée entre 06:00 UTC le jour donné et 06:00 UTC le lendemain.

3 Vent moyen de la journée basé sur les relevés horaires.

4 Ensoleillement en heures relevé entre 06:00 UTC la veille et 06:00 UTC le jour donné.

5 Précipitations totales tombées entre 06:00 UTC la jour donné et 06:00 UTC le lendemain.

Graphiques horaires